Time;durP1;ratioP1;P1;durP2;ratioP2;P2;SDS_P1;SDS_P2;PMS_P1;PMS_P2;Temp;Humidity;BMP_temperature;BMP_pressure;BME280_temperature;BME280_humidity;BME280_pressure;Samples;Min_cycle;Max_cycle;Signal;HPM_P1;HPM_P2
2023/07/26 00:00:43;;;;;;;24.77;6.63;;;;;;;28.52;39.46;93564.44;5223338;22;20092;-81
2023/07/26 00:02:45;;;;;;;13.32;6.78;;;;;;;28.48;40.10;93568.81;5222556;22;20190;-81
2023/07/26 00:04:47;;;;;;;12.35;6.55;;;;;;;28.48;40.49;93566.13;5223714;22;20085;-81
2023/07/26 00:06:49;;;;;;;49.45;7.85;;;;;;;28.51;39.79;93560.13;5193864;22;20124;-84
2023/07/26 00:08:51;;;;;;;25.17;7.43;;;;;;;28.55;40.10;93574.59;5215887;22;20051;-83
2023/07/26 00:10:53;;;;;;;19.60;7.57;;;;;;;28.49;40.68;93572.31;5214545;22;20058;-81
2023/07/26 00:12:55;;;;;;;15.60;7.30;;;;;;;28.33;42.23;93579.81;5215357;22;20240;-82
2023/07/26 00:14:58;;;;;;;17.90;7.18;;;;;;;28.34;41.82;93562.59;5161860;22;20055;-82
2023/07/26 00:17:01;;;;;;;14.68;6.95;;;;;;;28.35;42.39;93561.47;5213331;22;20037;-82
2023/07/26 00:19:04;;;;;;;16.20;7.22;;;;;;;28.30;42.50;93569.66;5214252;22;20042;-83
2023/07/26 00:21:07;;;;;;;16.10;6.95;;;;;;;28.17;43.58;93571.22;5214066;22;20108;-81
2023/07/26 00:23:08;;;;;;;14.57;7.67;;;;;;;27.68;44.43;93546.44;5187772;22;20031;-84
2023/07/26 00:25:10;;;;;;;16.42;7.22;;;;;;;27.75;43.84;93559.56;5214343;22;20409;-81
2023/07/26 00:27:14;;;;;;;12.20;7.07;;;;;;;27.62;44.74;93541.44;5187299;22;20031;-81
2023/07/26 00:29:15;;;;;;;16.13;7.05;;;;;;;27.64;44.74;93544.63;5214479;22;20023;-83
2023/07/26 00:31:18;;;;;;;20.17;7.13;;;;;;;27.55;45.27;93550.72;5212322;22;20030;-84
2023/07/26 00:33:21;;;;;;;20.67;7.97;;;;;;;27.56;45.79;93562.25;5214977;22;20039;-83
2023/07/26 00:35:25;;;;;;;19.70;7.40;;;;;;;27.54;45.95;93559.84;5188234;22;20027;-81
2023/07/26 00:37:27;;;;;;;17.55;7.80;;;;;;;27.43;46.06;93550.34;5214929;22;20608;-82
2023/07/26 00:39:29;;;;;;;14.23;7.80;;;;;;;27.34;46.40;93544.84;5215150;22;20389;-82
2023/07/26 00:41:31;;;;;;;16.25;7.07;;;;;;;27.25;46.67;93540.41;5213938;22;20023;-85
2023/07/26 00:43:33;;;;;;;14.63;7.10;;;;;;;27.20;47.02;93543.13;5214146;22;20027;-84
2023/07/26 00:45:38;;;;;;;20.30;7.90;;;;;;;27.22;46.85;93541.78;5185168;22;20193;-83
2023/07/26 00:47:40;;;;;;;15.65;8.20;;;;;;;27.30;46.48;93543.81;5213793;22;20420;-83
2023/07/26 00:49:42;;;;;;;15.13;6.82;;;;;;;27.35;46.84;93540.25;5186287;22;20015;-82
2023/07/26 00:51:44;;;;;;;20.58;7.18;;;;;;;27.43;47.13;93538.81;5213598;22;20033;-83
2023/07/26 00:53:48;;;;;;;15.48;7.00;;;;;;;27.44;46.62;93537.69;5213820;22;20023;-81
2023/07/26 00:55:49;;;;;;;21.45;7.80;;;;;;;27.33;47.15;93526.31;5186051;22;20293;-84
2023/07/26 00:57:51;;;;;;;18.48;7.22;;;;;;;27.32;46.84;93527.41;5162379;22;20023;-82
2023/07/26 00:59:56;;;;;;;19.23;7.88;;;;;;;27.37;46.39;93527.31;5187462;22;20374;-82
2023/07/26 01:01:58;;;;;;;21.05;7.28;;;;;;;27.38;46.86;93523.53;5186538;22;20028;-80
2023/07/26 01:04:00;;;;;;;22.13;7.63;;;;;;;27.44;46.48;93529.63;5218801;22;20023;-82
2023/07/26 01:06:41;;;;;;;16.58;7.10;;;;;;;27.49;46.03;93541.13;5219123;22;20023;-83
2023/07/26 01:08:52;;;;;;;14.98;7.30;;;;;;;27.55;46.29;93528.38;5200229;22;20074;-84
2023/07/26 01:10:57;;;;;;;16.52;7.03;;;;;;;26.92;48.53;93532.22;5227304;22;20023;-82
2023/07/26 01:13:11;;;;;;;18.70;7.47;;;;;;;26.92;48.36;93541.09;5203368;22;20027;-80
2023/07/26 01:15:14;;;;;;;16.90;7.53;;;;;;;27.04;48.01;93548.75;5229623;22;20452;-82
2023/07/26 01:17:16;;;;;;;14.73;7.53;;;;;;;26.94;48.46;93530.84;5224813;22;20130;-83
2023/07/26 01:19:18;;;;;;;16.27;8.05;;;;;;;27.07;48.34;93541.97;5220444;22;20401;-82
2023/07/26 01:21:21;;;;;;;17.25;7.38;;;;;;;27.10;48.78;93525.25;5220295;22;20366;-83
2023/07/26 01:23:23;;;;;;;17.77;8.55;;;;;;;27.09;48.72;93516.41;5188346;22;20437;-83
2023/07/26 01:25:25;;;;;;;16.70;7.32;;;;;;;26.96;48.85;93528.66;5214975;22;20027;-83
2023/07/26 01:27:27;;;;;;;17.77;7.60;;;;;;;27.05;49.09;93519.97;5213969;22;20087;-81
2023/07/26 01:29:28;;;;;;;16.20;7.45;;;;;;;27.05;48.71;93519.97;5214764;22;20041;-83
2023/07/26 01:31:49;;;;;;;24.98;7.45;;;;;;;27.11;48.87;93516.13;5213386;22;20023;-80
2023/07/26 01:33:52;;;;;;;21.90;7.07;;;;;;;26.99;49.28;93511.16;5186635;22;20016;-81
2023/07/26 01:35:54;;;;;;;17.63;8.07;;;;;;;26.89;49.56;93504.06;5217128;22;20027;-82
2023/07/26 01:37:59;;;;;;;12.57;6.95;;;;;;;26.79;49.77;93522.19;5189966;22;20027;-83
2023/07/26 01:40:02;;;;;;;17.15;7.43;;;;;;;26.82;49.70;93508.97;5188813;22;20026;-84
2023/07/26 01:42:04;;;;;;;17.42;6.82;;;;;;;26.88;49.74;93507.03;5216842;22;20023;-83
2023/07/26 01:44:10;;;;;;;18.92;7.53;;;;;;;26.91;49.48;93496.50;5204469;22;20082;-81
2023/07/26 01:46:13;;;;;;;17.23;7.70;;;;;;;26.86;49.82;93491.19;5229345;22;20039;-81
2023/07/26 01:48:15;;;;;;;19.15;7.88;;;;;;;26.69;50.37;93483.63;5205076;22;20049;-82
2023/07/26 01:50:17;;;;;;;24.55;7.57;;;;;;;26.70;50.10;93503.25;5233314;22;20027;-80
2023/07/26 01:52:18;;;;;;;16.30;7.22;;;;;;;26.73;50.22;93470.41;5229427;22;20023;-81
2023/07/26 01:54:21;;;;;;;21.23;7.82;;;;;;;26.60;50.26;93492.63;5235269;22;20071;-80
2023/07/26 01:56:22;;;;;;;18.23;7.90;;;;;;;26.52;50.27;93486.78;5209322;22;20035;-79
2023/07/26 01:58:24;;;;;;;18.90;7.90;;;;;;;26.54;50.71;93489.16;5207530;22;20103;-80
2023/07/26 02:00:26;;;;;;;18.45;7.82;;;;;;;26.67;50.48;93487.69;5233898;22;20098;-79
2023/07/26 02:02:29;;;;;;;17.13;8.05;;;;;;;26.48;51.01;93490.31;5228378;22;20146;-82
2023/07/26 02:04:31;;;;;;;19.52;7.80;;;;;;;26.50;50.68;93472.84;5230198;22;20038;-81
2023/07/26 02:06:33;;;;;;;16.42;7.70;;;;;;;26.62;50.71;93482.41;5204252;22;20023;-84
2023/07/26 02:08:35;;;;;;;24.02;7.75;;;;;;;26.51;50.80;93482.50;5232239;22;20039;-82
2023/07/26 02:10:36;;;;;;;18.88;7.88;;;;;;;26.51;51.04;93470.94;5199440;22;20046;-85
2023/07/26 02:12:38;;;;;;;20.17;8.00;;;;;;;26.47;51.34;93475.28;5188741;22;20049;-82
2023/07/26 02:14:40;;;;;;;17.45;7.47;;;;;;;26.29;51.96;93472.28;5216272;22;20723;-82
2023/07/26 02:16:42;;;;;;;18.38;7.65;;;;;;;26.31;50.49;93474.69;5187000;22;20030;-80
2023/07/26 02:18:44;;;;;;;21.35;7.80;;;;;;;26.34;50.73;93474.91;5214385;22;20058;-81
2023/07/26 02:20:45;;;;;;;15.60;7.43;;;;;;;26.04;52.49;93486.78;5214786;22;20023;-84
2023/07/26 02:22:47;;;;;;;20.40;7.90;;;;;;;26.17;51.30;93479.94;5214222;22;20026;-82
2023/07/26 02:24:49;;;;;;;26.85;7.65;;;;;;;26.23;51.44;93478.81;5213790;22;20101;-83
2023/07/26 02:26:51;;;;;;;20.67;7.68;;;;;;;26.17;51.65;93481.84;5213774;22;20103;-80
2023/07/26 02:28:53;;;;;;;18.85;7.78;;;;;;;26.22;51.13;93500.56;5215509;22;20061;-82
2023/07/26 02:30:55;;;;;;;17.63;7.88;;;;;;;26.19;49.64;93482.34;5185333;22;20023;-83
2023/07/26 02:32:57;;;;;;;16.48;7.28;;;;;;;26.33;48.52;93494.78;5214322;22;20049;-83
2023/07/26 02:34:58;;;;;;;16.95;7.78;;;;;;;26.66;46.99;93478.03;5162343;22;20111;-83
2023/07/26 02:37:01;;;;;;;23.02;7.82;;;;;;;26.68;46.70;93494.66;5216064;22;20295;-81
2023/07/26 02:39:04;;;;;;;19.42;7.32;;;;;;;26.74;48.42;93494.31;5214093;22;20465;-84
2023/07/26 02:41:06;;;;;;;15.98;7.00;;;;;;;26.68;48.07;93471.28;5213309;22;20030;-83
2023/07/26 02:43:08;;;;;;;16.42;7.28;;;;;;;26.72;47.95;93496.50;5214280;22;20277;-81
2023/07/26 02:45:09;;;;;;;16.42;7.45;;;;;;;26.74;47.93;93483.56;5184653;22;20028;-83
2023/07/26 02:47:11;;;;;;;23.38;7.70;;;;;;;26.73;48.37;93497.28;5214426;22;20105;-80
2023/07/26 02:49:13;;;;;;;19.05;8.10;;;;;;;26.65;48.92;93505.97;5187296;22;20036;-80
2023/07/26 02:51:15;;;;;;;16.83;7.53;;;;;;;26.42;50.19;93512.97;5213975;22;20042;-80
2023/07/26 02:53:17;;;;;;;15.70;7.05;;;;;;;26.31;50.24;93510.38;5187228;22;20130;-81
2023/07/26 02:55:19;;;;;;;16.48;7.50;;;;;;;26.39;50.61;93525.06;5215325;22;20026;-82
2023/07/26 02:57:20;;;;;;;18.55;7.90;;;;;;;26.44;50.94;93532.28;5215448;22;20026;-82
2023/07/26 02:59:22;;;;;;;17.95;8.63;;;;;;;26.31;51.61;93523.03;5216613;22;20054;-78
2023/07/26 03:01:24;;;;;;;14.65;7.90;;;;;;;26.20;52.32;93510.78;5186987;22;20076;-79
2023/07/26 03:03:26;;;;;;;18.63;8.10;;;;;;;25.87;53.81;93532.81;5192782;22;20024;-80
2023/07/26 03:05:28;;;;;;;17.60;7.93;;;;;;;25.69;54.03;93520.13;5218176;22;20078;-80
2023/07/26 03:07:30;;;;;;;18.57;7.83;;;;;;;25.57;54.33;93535.75;5216647;22;20042;-82
2023/07/26 03:09:34;;;;;;;14.80;6.93;;;;;;;25.73;54.22;93530.00;5187322;22;20035;-83
2023/07/26 03:11:38;;;;;;;15.02;8.15;;;;;;;25.88;53.31;93528.25;5186419;22;20027;-82
2023/07/26 03:13:39;;;;;;;15.57;6.95;;;;;;;25.93;53.12;93520.19;5215672;22;20712;-82
2023/07/26 03:15:41;;;;;;;17.20;8.45;;;;;;;26.09;53.06;93537.75;5186753;22;20061;-81
2023/07/26 03:17:43;;;;;;;14.57;8.32;;;;;;;26.08;53.21;93520.03;5187394;22;20105;-83
2023/07/26 03:19:45;;;;;;;19.13;8.40;;;;;;;25.96;53.88;93527.66;5188734;22;20016;-86
2023/07/26 03:21:47;;;;;;;16.42;7.65;;;;;;;25.69;54.10;93522.78;5215024;22;20102;-82
2023/07/26 03:23:48;;;;;;;16.92;8.10;;;;;;;25.56;54.90;93524.25;5215030;22;20051;-81
2023/07/26 03:25:51;;;;;;;21.60;8.27;;;;;;;25.50;54.96;93512.75;5213951;22;20023;-83
2023/07/26 03:27:53;;;;;;;18.70;7.85;;;;;;;25.46;55.04;93521.63;5215321;22;20083;-79
2023/07/26 03:29:54;;;;;;;20.40;8.50;;;;;;;25.49;55.05;93511.16;5187850;22;20063;-80
2023/07/26 03:31:56;;;;;;;19.38;8.70;;;;;;;25.62;54.57;93519.63;5214217;22;20401;-80
2023/07/26 03:33:58;;;;;;;25.42;9.05;;;;;;;25.73;54.70;93532.69;5187247;22;20023;-80
2023/07/26 03:36:00;;;;;;;18.55;8.00;;;;;;;25.83;54.30;93523.72;5215706;22;20338;-83
2023/07/26 03:38:01;;;;;;;18.98;8.00;;;;;;;25.95;54.05;93534.13;5216250;22;20025;-82
2023/07/26 03:40:04;;;;;;;15.38;7.68;;;;;;;25.71;54.33;93532.16;5215612;22;20307;-84
2023/07/26 03:42:06;;;;;;;24.23;9.63;;;;;;;25.75;54.24;93546.59;5218469;22;20022;-79
2023/07/26 03:44:07;;;;;;;19.77;9.05;;;;;;;25.82;54.22;93543.59;5217722;22;20054;-81
2023/07/26 03:46:09;;;;;;;31.50;8.80;;;;;;;25.91;54.30;93515.09;5212438;22;20046;-81
2023/07/26 03:48:11;;;;;;;20.70;8.98;;;;;;;25.85;54.38;93531.50;5213594;22;20027;-82
2023/07/26 03:50:13;;;;;;;21.67;8.02;;;;;;;25.82;54.42;93526.72;5213634;22;20084;-83
2023/07/26 03:52:15;;;;;;;18.05;8.60;;;;;;;25.81;54.50;93541.19;5186776;22;20037;-82
2023/07/26 03:54:16;;;;;;;17.80;7.60;;;;;;;25.81;54.27;93535.81;5186814;22;20024;-83
2023/07/26 03:56:20;;;;;;;16.60;7.95;;;;;;;25.88;54.37;93536.31;5213655;22;20030;-81
2023/07/26 03:58:22;;;;;;;16.80;8.63;;;;;;;26.02;54.31;93545.31;5214779;22;20027;-81
2023/07/26 04:00:23;;;;;;;26.75;8.38;;;;;;;26.03;53.85;93546.09;5211675;22;20436;-79
2023/07/26 04:02:25;;;;;;;22.17;8.43;;;;;;;26.03;53.97;93554.97;5215619;22;20106;-83
2023/07/26 04:04:27;;;;;;;24.30;8.75;;;;;;;25.97;53.99;93541.91;5188553;22;20055;-81
2023/07/26 04:06:30;;;;;;;24.67;9.38;;;;;;;25.99;54.43;93551.25;5228589;22;20053;-83
2023/07/26 04:08:32;;;;;;;17.52;8.77;;;;;;;26.06;54.20;93546.34;5215103;22;20035;-83
2023/07/26 04:10:34;;;;;;;14.38;8.13;;;;;;;26.19;53.85;93568.25;5215847;22;20130;-84
2023/07/26 04:12:35;;;;;;;17.65;8.32;;;;;;;26.30;53.72;93575.88;5215784;22;20089;-82
2023/07/26 04:14:37;;;;;;;21.55;9.95;;;;;;;26.38;53.86;93563.75;5214091;22;20115;-81
2023/07/26 04:16:39;;;;;;;23.38;9.95;;;;;;;26.48;53.69;93566.31;5211866;22;20034;-83
2023/07/26 04:18:41;;;;;;;20.77;9.45;;;;;;;26.51;53.15;93560.38;5214612;22;20034;-82
2023/07/26 04:20:43;;;;;;;16.20;8.25;;;;;;;26.58;53.43;93570.00;5187214;22;20150;-83
2023/07/26 04:22:44;;;;;;;18.95;8.57;;;;;;;26.66;52.75;93561.31;5187334;22;20034;-85
2023/07/26 04:24:46;;;;;;;23.15;9.02;;;;;;;26.62;52.70;93557.59;5160853;23;20066;-82
2023/07/26 04:26:48;;;;;;;15.40;8.32;;;;;;;26.69;52.91;93556.16;5213885;22;20099;-83
2023/07/26 04:28:50;;;;;;;18.05;8.38;;;;;;;26.77;52.58;93568.94;5187391;22;20620;-81
2023/07/26 04:30:52;;;;;;;16.83;8.55;;;;;;;26.88;52.24;93582.25;5159564;23;20016;-84
2023/07/26 04:32:56;;;;;;;21.98;7.90;;;;;;;26.83;52.11;93534.75;5186637;22;20027;-84
2023/07/26 04:34:58;;;;;;;20.98;8.65;;;;;;;26.49;53.48;93530.31;5214233;22;20030;-83
2023/07/26 04:36:59;;;;;;;23.17;9.05;;;;;;;26.63;53.14;93533.16;5215034;22;20404;-82
2023/07/26 04:39:06;;;;;;;18.60;8.55;;;;;;;26.76;53.04;93553.13;5214280;22;20038;-82
2023/07/26 04:41:08;;;;;;;16.38;8.32;;;;;;;26.84;52.78;93554.38;5212871;22;20027;-81
2023/07/26 04:43:10;;;;;;;20.25;9.40;;;;;;;26.91;52.19;93544.06;5186861;22;20023;-81
2023/07/26 04:45:12;;;;;;;19.60;9.30;;;;;;;27.04;52.52;93539.84;5211960;22;20050;-83
2023/07/26 04:47:15;;;;;;;25.88;9.50;;;;;;;27.15;52.62;93522.50;5212858;22;20447;-85
2023/07/26 04:49:17;;;;;;;17.42;8.45;;;;;;;27.06;51.69;93513.47;5214514;22;20069;-84
2023/07/26 04:51:19;;;;;;;23.30;8.75;;;;;;;26.90;52.57;93537.88;5187889;22;20015;-81
2023/07/26 04:53:20;;;;;;;19.77;8.02;;;;;;;27.06;52.45;93556.50;5187785;22;20023;-82
2023/07/26 04:55:22;;;;;;;19.35;8.07;;;;;;;27.24;51.85;93539.59;5214549;22;20023;-83
2023/07/26 04:57:24;;;;;;;18.55;8.65;;;;;;;27.20;51.26;93524.31;5186893;22;20023;-83
2023/07/26 04:59:26;;;;;;;25.05;8.27;;;;;;;27.11;51.34;93524.97;5186472;22;20032;-81
2023/07/26 05:01:28;;;;;;;21.02;9.00;;;;;;;27.23;51.17;93516.47;5212585;22;20106;-81
2023/07/26 05:03:31;;;;;;;23.98;9.30;;;;;;;27.28;51.54;93527.19;5214124;22;20027;-84
2023/07/26 05:05:33;;;;;;;19.17;8.27;;;;;;;27.45;50.94;93544.66;5213986;22;20395;-85
2023/07/26 05:07:35;;;;;;;22.40;8.95;;;;;;;27.26;51.43;93520.50;5214116;22;20099;-84
2023/07/26 05:09:37;;;;;;;22.48;8.52;;;;;;;27.44;51.31;93545.78;5186872;22;20319;-83
2023/07/26 05:11:39;;;;;;;19.88;8.48;;;;;;;27.64;51.08;93523.94;5213421;22;20114;-84
2023/07/26 05:13:41;;;;;;;23.35;9.32;;;;;;;27.78;50.79;93522.06;5187486;22;20039;-83
2023/07/26 05:15:43;;;;;;;18.05;8.02;;;;;;;27.75;49.77;93538.81;5184982;22;20030;-83
2023/07/26 05:17:45;;;;;;;17.42;8.10;;;;;;;27.63;50.87;93533.09;5186659;22;20055;-82
2023/07/26 05:19:48;;;;;;;18.75;8.65;;;;;;;27.39;51.56;93527.81;5214601;22;20053;-84
2023/07/26 05:21:50;;;;;;;22.15;8.40;;;;;;;27.33;51.76;93526.31;5187025;22;20020;-82
2023/07/26 05:23:52;;;;;;;21.98;8.88;;;;;;;27.35;51.63;93532.97;5162338;22;20028;-83
2023/07/26 05:25:54;;;;;;;20.10;8.75;;;;;;;27.16;52.37;93507.97;5214789;22;20423;-82
2023/07/26 05:27:55;;;;;;;19.80;8.98;;;;;;;27.26;51.85;93512.44;5187841;22;20030;-83
2023/07/26 05:29:57;;;;;;;19.42;9.13;;;;;;;27.41;51.60;93530.22;5186776;22;20195;-84
2023/07/26 05:31:59;;;;;;;25.23;8.38;;;;;;;27.55;51.19;93526.50;5186804;22;20391;-82
2023/07/26 05:34:01;;;;;;;19.45;8.18;;;;;;;27.55;50.72;93507.69;5186886;22;20540;-84
2023/07/26 05:36:03;;;;;;;18.33;7.75;;;;;;;27.54;50.92;93540.25;5187166;22;20030;-81
2023/07/26 05:38:05;;;;;;;22.73;8.15;;;;;;;27.72;50.48;93535.91;5187626;22;20020;-83
2023/07/26 05:40:07;;;;;;;19.77;8.70;;;;;;;27.78;50.97;93527.44;5189030;22;20065;-81
2023/07/26 05:42:09;;;;;;;25.00;9.67;;;;;;;27.82;49.91;93543.03;5213153;22;20027;-82
2023/07/26 05:44:11;;;;;;;19.90;9.10;;;;;;;27.86;49.90;93522.53;5215234;22;20023;-80
2023/07/26 05:46:14;;;;;;;25.95;8.85;;;;;;;27.90;49.27;93524.34;5213453;22;20027;-81
2023/07/26 05:48:16;;;;;;;15.98;8.20;;;;;;;27.57;48.74;93526.97;5187578;22;20098;-82
2023/07/26 05:50:18;;;;;;;20.85;8.90;;;;;;;27.44;49.36;93513.50;5187817;22;20029;-84
2023/07/26 05:52:20;;;;;;;25.98;8.48;;;;;;;27.57;48.20;93520.81;5214632;22;20023;-81
2023/07/26 05:54:23;;;;;;;22.10;8.25;;;;;;;27.83;48.07;93515.78;5188508;22;20069;-82
2023/07/26 05:56:25;;;;;;;28.98;9.10;;;;;;;28.13;47.98;93514.47;5215399;22;20023;-83
2023/07/26 05:58:26;;;;;;;22.65;9.10;;;;;;;28.27;47.70;93511.03;5162418;23;20028;-83
2023/07/26 06:00:31;;;;;;;37.83;10.63;;;;;;;28.34;47.52;93501.44;5214427;22;20453;-82
2023/07/26 06:02:33;;;;;;;20.27;8.05;;;;;;;28.30;47.49;93515.81;5214760;22;20034;-81
2023/07/26 06:04:34;;;;;;;21.40;9.02;;;;;;;28.08;47.78;93487.66;5215151;22;20023;-84
2023/07/26 06:06:36;;;;;;;16.23;8.02;;;;;;;28.02;47.01;93493.44;5214225;22;20029;-86
2023/07/26 06:08:38;;;;;;;21.35;8.40;;;;;;;28.10;46.84;93507.00;5215029;22;20023;-84
2023/07/26 06:10:40;;;;;;;17.75;7.88;;;;;;;28.26;47.63;93510.22;5215262;22;20041;-82
2023/07/26 06:12:42;;;;;;;19.40;8.43;;;;;;;28.43;46.75;93498.84;5189138;22;20098;-81
2023/07/26 06:14:44;;;;;;;24.83;8.60;;;;;;;28.53;46.23;93497.88;5216797;22;20236;-81
2023/07/26 06:16:46;;;;;;;18.90;8.57;;;;;;;28.70;45.77;93510.75;5193638;22;20051;-83
2023/07/26 06:18:49;;;;;;;25.20;8.43;;;;;;;28.89;45.55;93521.38;5215431;22;20019;-85
2023/07/26 06:20:50;;;;;;;20.73;8.23;;;;;;;28.86;44.88;93500.44;5214220;22;20062;-83
2023/07/26 06:22:53;;;;;;;19.42;8.07;;;;;;;28.78;44.24;93483.88;5214909;22;20348;-83
2023/07/26 06:24:54;;;;;;;26.95;8.05;;;;;;;28.92;43.22;93489.22;5215021;22;20032;-84
2023/07/26 06:26:57;;;;;;;22.30;7.75;;;;;;;29.11;42.01;93491.81;5215046;22;20019;-86
2023/07/26 06:28:59;;;;;;;20.35;7.95;;;;;;;29.35;40.74;93502.31;5191757;22;20138;-81
2023/07/26 06:31:01;;;;;;;26.02;8.68;;;;;;;29.47;41.15;93482.88;5218359;22;20054;-82
2023/07/26 06:33:03;;;;;;;21.38;7.35;;;;;;;29.71;39.25;93476.41;5164182;22;20085;-83
2023/07/26 06:35:05;;;;;;;37.80;8.48;;;;;;;29.88;38.53;93479.19;5215596;22;20019;-84
2023/07/26 06:37:07;;;;;;;26.60;7.93;;;;;;;30.14;38.57;93486.63;5216975;22;20081;-84
2023/07/26 06:39:08;;;;;;;16.35;7.20;;;;;;;30.29;37.46;93480.03;5191004;22;20078;-82
2023/07/26 06:41:11;;;;;;;29.23;8.05;;;;;;;30.47;38.23;93487.09;5191106;22;20447;-84
2023/07/26 06:43:13;;;;;;;23.40;7.68;;;;;;;30.61;37.33;93487.78;5220381;22;20030;-82
2023/07/26 06:45:15;;;;;;;29.48;8.52;;;;;;;30.64;37.92;93486.34;5218431;22;20019;-80
2023/07/26 06:47:17;;;;;;;26.15;8.77;;;;;;;30.72;37.74;93498.31;5217169;22;20354;-83
2023/07/26 06:49:19;;;;;;;26.08;7.20;;;;;;;30.86;34.63;93492.75;5219509;22;20027;-84
2023/07/26 06:51:21;;;;;;;22.70;7.53;;;;;;;30.98;32.28;93484.84;5220353;22;20034;-83
2023/07/26 06:53:23;;;;;;;17.00;6.63;;;;;;;31.10;31.97;93505.84;5191676;22;20099;-84
2023/07/26 06:55:25;;;;;;;23.85;7.60;;;;;;;31.20;31.38;93494.72;5215731;22;20023;-83
2023/07/26 06:57:27;;;;;;;26.35;6.72;;;;;;;31.31;31.03;93503.31;5216692;22;20435;-83
2023/07/26 06:59:30;;;;;;;27.60;6.90;;;;;;;31.36;30.10;93512.09;5191247;22;20079;-83
2023/07/26 07:01:33;;;;;;;29.45;7.07;;;;;;;31.39;28.85;93483.59;5188218;22;20062;-84
2023/07/26 07:03:35;;;;;;;28.50;5.50;;;;;;;31.37;28.41;93481.19;5190714;22;20027;-85
2023/07/26 07:05:37;;;;;;;22.23;6.88;;;;;;;31.47;28.80;93490.13;5189618;22;20039;-81
2023/07/26 07:07:39;;;;;;;23.40;7.20;;;;;;;31.51;28.50;93469.44;5216531;22;20538;-82
2023/07/26 07:09:42;;;;;;;33.70;7.20;;;;;;;31.63;28.33;93499.34;5215246;22;20023;-82
2023/07/26 07:11:44;;;;;;;;;;;;;;;31.76;28.57;93484.03;5218001;22;20341;-82
2023/07/26 07:13:46;;;;;;;37.45;7.07;;;;;;;31.83;27.78;93506.00;5216527;22;19918;-85
2023/07/26 07:15:47;;;;;;;26.58;7.07;;;;;;;31.87;28.07;93503.44;5189172;22;20024;-81
2023/07/26 07:17:50;;;;;;;21.90;6.90;;;;;;;31.92;28.51;93495.16;5218397;22;20023;-82
2023/07/26 07:20:11;;;;;;;21.25;6.57;;;;;;;31.84;28.89;93489.44;5220063;22;20019;-82
2023/07/26 07:22:13;;;;;;;21.88;7.80;;;;;;;31.84;29.77;93497.56;5219153;22;20022;-83
2023/07/26 07:24:15;;;;;;;39.78;7.25;;;;;;;31.72;30.07;93512.88;5190886;22;20027;-82
2023/07/26 07:26:17;;;;;;;25.00;7.22;;;;;;;31.62;28.90;93511.28;5220114;22;20632;-81
2023/07/26 07:28:19;;;;;;;23.02;6.65;;;;;;;31.70;30.23;93534.84;5197227;22;20047;-79
2023/07/26 07:30:21;;;;;;;27.35;7.05;;;;;;;31.66;30.21;93519.56;5231498;22;20051;-83
2023/07/26 07:32:23;;;;;;;22.00;6.80;;;;;;;31.75;29.89;93513.03;5204864;22;20031;-84
2023/07/26 07:34:25;;;;;;;17.08;6.63;;;;;;;31.76;30.69;93524.66;5229620;22;20023;-83
2023/07/26 07:36:26;;;;;;;21.38;6.57;;;;;;;31.80;30.50;93525.59;5231298;22;20079;-83
2023/07/26 07:38:28;;;;;;;19.83;7.05;;;;;;;31.88;30.83;93521.28;5228679;22;20082;-86
2023/07/26 07:40:30;;;;;;;20.98;7.35;;;;;;;31.86;31.37;93537.06;5231359;22;20042;-82
2023/07/26 07:42:32;;;;;;;27.92;7.88;;;;;;;31.86;31.21;93518.09;5231136;22;20469;-83
2023/07/26 07:44:34;;;;;;;26.65;6.63;;;;;;;31.82;30.84;93539.63;5203837;22;20129;-82
2023/07/26 07:46:36;;;;;;;26.50;6.90;;;;;;;31.82;30.86;93516.03;5199982;22;20126;-81
2023/07/26 07:48:44;;;;;;;23.08;7.10;;;;;;;31.81;31.26;93519.88;5228979;22;20272;-83
2023/07/26 07:50:53;;;;;;;21.02;7.82;;;;;;;31.89;31.45;93517.47;5229135;22;20019;-82
2023/07/26 07:52:54;;;;;;;27.50;7.72;;;;;;;31.99;31.15;93517.16;5202108;22;20030;-83
2023/07/26 07:54:56;;;;;;;20.98;6.88;;;;;;;31.93;31.39;93523.84;5227369;22;20538;-85
2023/07/26 07:56:59;;;;;;;25.63;7.20;;;;;;;31.94;31.06;93514.56;5218836;22;20031;-85
2023/07/26 07:59:01;;;;;;;25.58;7.05;;;;;;;32.00;31.25;93514.13;5216902;22;20050;-84
2023/07/26 08:01:03;;;;;;;30.92;7.55;;;;;;;31.97;30.65;93520.16;5216380;22;20019;-83
2023/07/26 08:03:06;;;;;;;55.60;8.13;;;;;;;32.17;30.50;93499.72;5217234;22;20027;-86
2023/07/26 08:05:09;;;;;;;24.00;7.72;;;;;;;32.37;30.86;93513.69;5215944;22;20031;-83
2023/07/26 08:07:11;;;;;;;26.33;6.82;;;;;;;32.43;31.09;93513.16;5189538;22;20081;-84
2023/07/26 08:09:13;;;;;;;27.55;6.97;;;;;;;32.46;30.56;93517.16;5217984;22;20015;-86
2023/07/26 08:11:15;;;;;;;25.80;6.32;;;;;;;32.46;30.03;93530.72;5189728;22;20027;-84
2023/07/26 08:13:19;;;;;;;28.10;7.45;;;;;;;32.50;28.61;93531.63;5217714;22;20054;-83
2023/07/26 08:15:21;;;;;;;24.65;6.65;;;;;;;32.39;28.75;93508.72;5215531;22;20102;-82
2023/07/26 08:17:23;;;;;;;27.73;6.90;;;;;;;32.51;29.39;93514.28;5163382;22;20024;-85
2023/07/26 08:19:25;;;;;;;23.70;6.93;;;;;;;32.72;28.52;93514.38;5215748;22;20395;-82
2023/07/26 08:21:27;;;;;;;29.37;6.93;;;;;;;32.84;28.52;93525.28;5189764;22;20027;-83
2023/07/26 08:23:32;;;;;;;22.40;5.43;;;;;;;32.85;26.81;93520.69;5218961;22;20349;-84
2023/07/26 08:25:34;;;;;;;18.88;5.90;;;;;;;32.84;24.84;93494.66;5195084;22;20411;-83
2023/07/26 08:27:36;;;;;;;16.23;5.18;;;;;;;32.91;25.36;93513.13;5172405;22;20024;-83
2023/07/26 08:29:38;;;;;;;29.42;5.88;;;;;;;32.87;25.26;93507.59;5217088;22;20027;-85
2023/07/26 08:31:40;;;;;;;21.48;5.72;;;;;;;33.01;25.43;93513.53;5215154;22;20015;-81
2023/07/26 08:33:43;;;;;;;17.88;6.43;;;;;;;33.07;25.47;93508.75;5189333;22;20089;-82
2023/07/26 08:35:44;;;;;;;19.70;5.63;;;;;;;33.12;25.13;93502.34;5217651;22;20205;-81
2023/07/26 08:37:46;;;;;;;21.75;5.60;;;;;;;33.20;24.64;93494.13;5164032;23;20028;-82
2023/07/26 08:39:48;;;;;;;17.33;5.85;;;;;;;33.16;24.19;93498.63;5190486;22;20076;-83
2023/07/26 08:41:51;;;;;;;18.30;6.38;;;;;;;33.19;24.56;93486.31;5192318;22;20112;-83
2023/07/26 08:43:54;;;;;;;20.38;5.90;;;;;;;33.22;24.86;93513.59;5216417;22;20030;-81
2023/07/26 08:45:56;;;;;;;;;;;;;;;33.25;25.00;93509.41;5186855;22;20213;-81
2023/07/26 08:47:58;;;;;;;20.75;6.22;;;;;;;33.29;25.37;93498.69;5162830;22;19991;-81
2023/07/26 08:50:02;;;;;;;23.92;6.18;;;;;;;33.24;25.42;93505.91;5216616;22;20079;-82
2023/07/26 08:52:04;;;;;;;16.83;5.00;;;;;;;33.41;25.28;93496.06;5190087;22;20019;-84
2023/07/26 08:54:06;;;;;;;25.20;6.05;;;;;;;33.59;25.21;93481.22;5216726;22;20522;-82
2023/07/26 08:56:08;;;;;;;19.25;5.80;;;;;;;33.69;25.00;93493.59;5216795;22;20031;-82
2023/07/26 08:58:10;;;;;;;28.20;5.53;;;;;;;33.80;24.80;93489.34;5216581;22;20059;-83
2023/07/26 09:00:14;;;;;;;20.40;5.43;;;;;;;33.89;24.98;93488.47;5217090;22;20027;-83
2023/07/26 09:02:17;;;;;;;15.90;5.55;;;;;;;33.86;24.81;93507.00;5216603;22;20043;-80
2023/07/26 09:04:18;;;;;;;20.52;6.50;;;;;;;33.96;25.33;93492.19;5189126;22;20024;-82
2023/07/26 09:06:20;;;;;;;18.27;5.90;;;;;;;33.98;25.20;93508.16;5216509;22;20027;-83
2023/07/26 09:08:22;;;;;;;19.77;5.78;;;;;;;34.04;23.34;93498.69;5163933;23;20593;-83
2023/07/26 09:10:26;;;;;;;17.42;5.38;;;;;;;34.11;24.15;93506.28;5215882;22;20394;-83
2023/07/26 09:12:28;;;;;;;19.23;5.15;;;;;;;34.11;23.91;93509.00;5162499;22;20028;-83
2023/07/26 09:14:32;;;;;;;17.60;5.45;;;;;;;34.17;24.14;93496.81;5188817;22;20133;-83
2023/07/26 09:16:34;;;;;;;17.17;5.18;;;;;;;34.13;24.29;93520.34;5187446;22;20118;-82
2023/07/26 09:18:35;;;;;;;20.05;5.55;;;;;;;34.04;24.13;93526.63;5188121;22;20179;-83
2023/07/26 09:20:37;;;;;;;22.45;6.50;;;;;;;33.98;23.81;93516.31;5188195;22;20557;-83
2023/07/26 09:22:41;;;;;;;25.98;6.22;;;;;;;33.84;24.10;93511.97;5217009;22;20019;-81
2023/07/26 09:24:49;;;;;;;19.25;5.78;;;;;;;33.90;24.54;93511.75;5215817;22;20054;-85
2023/07/26 09:26:51;;;;;;;14.07;5.15;;;;;;;33.89;23.64;93507.47;5187268;22;20027;-83
2023/07/26 09:28:55;;;;;;;21.30;6.10;;;;;;;33.93;24.00;93502.97;5163447;23;20063;-84
2023/07/26 09:30:58;;;;;;;18.40;5.30;;;;;;;34.02;24.39;93501.72;5213278;22;20075;-82